Flight Track Log - Related Links

Times and Time Zones

All times are in EDT time to prevent confusion due to time zone crossing. See the FIN666 flight status page for this flight to view local times or setup timezone preferences in your user account.

Time Position Orientation Groundspeed Altitude Reporting Facility
EDT Latitude Longitude Course Direction KTS MPH feet Rate Location/Type
Sat 07:34:00 AM 55.8272 13.0881 49° Northeast  Level Estimated
Sat 07:35:00 AM 55.8966 13.2332 49° Northeast  Level Estimated
Sat 07:36:00 AM 55.9658 13.3788 50° Northeast  Level Estimated
Sat 07:37:00 AM 56.0358 13.5269 50° Northeast  Level Estimated
Sat 07:38:00 AM 56.1056 13.6755 50° Northeast  Level Estimated
Sat 07:39:00 AM 56.1753 13.8247 50° Northeast  Level Estimated
Sat 07:40:00 AM 56.2447 13.9744 50° Northeast  Level Estimated
Sat 07:41:00 AM 56.3140 14.1247 50° Northeast  Level Estimated
Sat 07:42:00 AM 56.3831 14.2755 50° Northeast  Level Estimated
Sat 07:43:00 AM 56.4520 14.4269 50° Northeast  Level Estimated
Sat 07:44:00 AM 56.5207 14.5787 51° Northeast  Level Estimated
Sat 07:45:00 AM 56.5893 14.7312 51° Northeast  Level Estimated
Sat 07:46:00 AM 56.6576 14.8842 51° Northeast  Level Estimated
Sat 07:47:00 AM 56.7258 15.0378 51° Northeast  Level Estimated
Sat 07:48:00 AM 56.7938 15.1919 51° Northeast  Level Estimated
Sat 07:49:00 AM 56.8615 15.3466 51° Northeast  Level Estimated
Sat 07:50:00 AM 56.9291 15.5018 51° Northeast  Level Estimated
Sat 07:51:00 AM 56.9965 15.6576 52° Northeast  Level Estimated
Sat 07:52:00 AM 57.0637 15.8140 52° Northeast  Level Estimated
Sat 07:53:00 AM 57.1307 15.9709 52° Northeast  Level Estimated
Sat 07:54:00 AM 57.1976 16.1284 52° Northeast  Level Estimated
Sat 07:55:00 AM 57.2642 16.2865 52° Northeast  Level Estimated
Sat 07:56:00 AM 57.3334 16.4518 52° Northeast  Level Estimated
Sat 07:57:00 AM 57.4024 16.6178 52° Northeast  Level Estimated
Sat 07:58:00 AM 57.4712 16.7844 52° Northeast  Level Estimated
Sat 07:59:00 AM 57.5397 16.9517 53° Northeast  Level Estimated
Sat 08:00:00 AM 57.6081 17.1195 53° Northeast  Level Estimated
Sat 08:01:00 AM 57.6762 17.2880 53° Northeast  Level Estimated
Sat 08:02:00 AM 57.7441 17.4572 53° Northeast  Level Estimated
Sat 08:03:00 AM 57.8117 17.6269 53° Northeast  Level Estimated
Sat 08:04:00 AM 57.8792 17.7973 53° Northeast  Level Estimated
Sat 08:05:00 AM 57.9464 17.9684 53° Northeast  Level Estimated
Sat 08:06:00 AM 58.0134 18.1401 54° Northeast  Level Estimated
Sat 08:07:00 AM 58.0801 18.3124 54° Northeast  Level Estimated
Sat 08:08:00 AM 58.1466 18.4853 54° Northeast  Level Estimated
Sat 08:09:00 AM 58.2129 18.6590 54° Northeast  Level Estimated
Sat 08:10:00 AM 58.2789 18.8332 54° Northeast  Level Estimated
Sat 08:11:00 AM 58.3447 19.0081 54° Northeast  Level Estimated
Sat 08:12:00 AM 58.4103 19.1837 54° Northeast  Level Estimated
Sat 08:13:00 AM 58.4756 19.3599 55° Northeast  Level Estimated
Sat 08:14:00 AM 58.5407 19.5368 55° Northeast  Level Estimated
Sat 08:15:00 AM 58.6055 19.7143 55° Northeast  Level Estimated
Sat 08:16:00 AM 58.6702 19.8925 55° Northeast  Level Estimated
Sat 08:17:00 AM 58.7345 20.0714 55° Northeast  Level Estimated
Sat 08:18:00 AM 58.7986 20.2509 55° Northeast  Level Estimated
Sat 08:19:00 AM 58.8624 20.4310 56° Northeast  Level Estimated
Sat 08:20:00 AM 58.9260 20.6119 56° Northeast  Level Estimated
Sat 08:21:00 AM 58.9894 20.7934 56° Northeast  Level Estimated
Sat 08:22:00 AM 59.0524 20.9756 56° Northeast  Level Estimated
Sat 08:23:00 AM 59.1153 21.1584 56° Northeast  Level Estimated
Sat 08:24:00 AM 59.1778 21.3419 56° Northeast  Level Estimated
Sat 08:25:00 AM 59.2402 21.5261 56° Northeast  Level Estimated
Sat 08:26:00 AM 59.3022 21.7109 57° Northeast  Level Estimated
Sat 08:27:00 AM 59.3640 21.8965 57° Northeast  Level Estimated
Sat 08:28:00 AM 59.4255 22.0827 57° Northeast  Level Estimated
Sat 08:29:00 AM 59.4868 22.2696 57° Northeast  Level Estimated
Sat 08:30:00 AM 59.5478 22.4571 57° Northeast  Level Estimated
Sat 08:31:00 AM 59.6085 22.6454 57° Northeast  Level Estimated
Sat 08:32:00 AM 59.6689 22.8343 58° Northeast  Level Estimated
Sat 08:33:00 AM 59.7291 23.0239 58° Northeast  Level Estimated
Sat 08:34:00 AM 59.7890 23.2142 58° Northeast  Level Estimated
Sat 08:35:00 AM 59.8486 23.4051 58° Northeast  Level Estimated
Sat 08:36:00 AM 59.9080 23.5968 58° Northeast  Level Estimated
Sat 08:37:00 AM 59.9671 23.7891 58° Northeast  Level Estimated
Sat 08:38:00 AM 60.0258 23.9821 59° Northeast  Level Estimated
Sat 08:39:00 AM 60.0844 24.1758 59° Northeast  Level Estimated
Sat 08:40:00 AM 60.1426 24.3702 59° Northeast  Level Estimated
Sat 08:41:00 AM 60.2005 24.5653 59° Northeast  Level Estimated
Sat 08:42:00 AM 60.2582 24.7611 59° Northeast  Level Estimated
Sat 08:43:00 AM 60.3155 24.9575 59° Northeast  Level Estimated
Sat 08:44:00 AM 60.3172 24.9633 60° Northeast  Level Estimated
Sat 08:45:00 AM 60.3172 24.9633 North  Level Estimated
Sat 08:46:00 AM 60.3172 24.9633 North  Level Estimated
Sat 08:47:00 AM 60.3172 24.9633 North  Level Estimated
Sat 08:48:00 AM 60.3172 24.9633 North  Level Estimated
Sat 08:49:00 AM 60.3172 24.9633 North  Level Estimated
Sat 08:50:00 AM 60.3172 24.9633 North  Level Estimated
Sat 08:51:00 AM 60.3172 24.9633 North  Level Estimated
Sat 08:52:00 AM 60.3172 24.9633 North  Level Estimated
Sat 08:53:00 AM 60.3172 24.9633 North  Level Estimated
Sat 08:54:00 AM 60.3172 24.9633 North  Level Estimated
Sat 08:55:00 AM 60.3172 24.9633 North  Level Estimated
Sat 08:56:00 AM 60.3172 24.9633 North  Level Estimated
Sat 08:57:00 AM 60.3172 24.9633 North  Level Estimated
Sat 08:58:00 AM 60.3172 24.9633 North  Level Estimated
Sat 08:59:00 AM 60.3172 24.9633 North  Level Estimated

Login

Don't have an account? Register now (free) for customized features, flight alerts, and more!